In Rescue
 
Open Full Screen Window  High Contrast Mode
Wind Gusting 00 knots
05
July 25, 2021 7:27 AM EDT
Weather Information
Wind Direction
  270 °
Wind Speed
  05 kt (6 mph)
Wind Gust
  00 kt (0 mph)
Altimeter
29.88 in
Visibility
7 SM
Temperature
20° C
68° F
Dewpoint
20° C
68° F
Humidity
100%
Sky Condition
Clear
VFR

METAR KHYX 251127Z AUTO 27005KT 7SM CLR 20/20 A2988 RMK AO2 T01950195

FAA Disclaimer: The data displayed is for advisory purposes only and is not to be used for flight planning or operations.